createdAt,value
2022-08-03T01:41:38.940Z,99.90
2022-08-03T01:44:30.182Z,99.90
2022-08-03T01:46:59.837Z,99.90
2022-08-03T01:49:28.909Z,99.90
2022-08-03T01:52:02.946Z,99.90
2022-08-03T01:57:04.817Z,99.90
2022-08-03T01:59:34.454Z,99.90
2022-08-03T02:02:15.964Z,99.90
2022-08-03T02:04:52.523Z,99.90
2022-08-03T02:07:20.099Z,99.90
2022-08-03T02:09:51.192Z,99.90
2022-08-03T02:12:20.755Z,99.90
2022-08-03T02:14:49.346Z,99.90
2022-08-03T02:17:16.651Z,99.90
2022-08-03T02:19:44.662Z,99.90
2022-08-03T02:22:13.287Z,99.90
2022-08-03T02:24:40.847Z,99.90
2022-08-03T02:27:16.275Z,99.90
2022-08-03T02:29:46.899Z,99.90
2022-08-03T02:32:20.271Z,99.90
2022-08-03T02:52:21.761Z,99.90
2022-08-03T02:54:51.173Z,99.90
2022-08-03T03:05:50.683Z,99.90
2022-08-03T07:33:35.374Z,99.90
2022-08-03T07:50:46.364Z,99.90
2022-08-03T07:53:13.393Z,99.90
2022-08-03T07:55:40.278Z,99.90
2022-08-03T08:00:37.072Z,99.90
2022-08-03T08:03:05.146Z,99.90
2022-08-03T08:05:32.757Z,99.90
2022-08-03T08:08:00.262Z,99.90
2022-08-03T08:10:27.896Z,99.90
2022-08-03T08:12:55.454Z,99.90
2022-08-03T08:15:22.375Z,99.90
2022-08-03T08:20:30.441Z,99.90
2022-08-03T08:28:31.637Z,99.90
2022-08-03T08:33:15.695Z,99.90
2022-08-03T08:35:51.319Z,99.90
2022-08-03T08:38:18.246Z,99.80
2022-08-03T08:40:45.301Z,99.90
2022-08-03T08:43:12.605Z,99.40
2022-08-03T08:45:41.452Z,99.90
2022-08-03T08:50:38.838Z,98.40
2022-08-03T08:53:10.714Z,98.80
2022-08-03T09:24:04.361Z,94.10
2022-08-03T09:26:34.358Z,94.30
2022-08-03T09:29:13.148Z,94.10
2022-08-03T09:31:45.844Z,94.20
2022-08-03T09:34:16.084Z,94.00
2022-08-03T09:36:50.578Z,93.60
2022-08-03T09:39:41.631Z,93.80
2022-08-03T09:42:18.371Z,93.10
2022-08-03T09:44:48.002Z,92.60
2022-08-03T09:50:02.237Z,92.30
2022-08-03T09:52:49.676Z,92.20
2022-08-03T09:56:30.665Z,91.30
2022-08-03T10:00:57.779Z,91.30
2022-08-03T10:03:25.851Z,91.40
2022-08-03T10:05:57.487Z,91.90
2022-08-03T10:08:26.179Z,90.60
2022-08-03T10:10:58.879Z,91.20
2022-08-03T10:13:25.775Z,89.10
2022-08-03T10:16:23.611Z,99.50
2022-08-03T10:18:39.519Z,90.20
2022-08-03T10:21:14.214Z,89.80
2022-08-03T10:23:42.186Z,89.00
2022-08-03T10:26:16.364Z,87.80
2022-08-03T10:28:53.667Z,88.10
2022-08-03T10:31:24.001Z,86.00
2022-08-03T10:33:55.005Z,87.00
2022-08-03T10:36:24.625Z,85.90
2022-08-03T10:41:32.083Z,83.40
2022-08-03T10:44:17.537Z,82.50
2022-08-03T10:46:45.725Z,81.00
2022-08-03T10:49:32.807Z,81.60
2022-08-03T10:52:13.194Z,81.60
2022-08-03T10:55:10.187Z,79.30
2022-08-03T10:57:49.809Z,80.80
2022-08-03T11:00:28.265Z,80.40
2022-08-03T11:03:06.932Z,79.50
2022-08-03T11:05:39.119Z,78.30
2022-08-03T11:08:28.759Z,78.90
2022-08-03T11:11:18.218Z,88.90
2022-08-03T11:13:58.414Z,83.40
2022-08-03T11:16:27.534Z,75.20
2022-08-03T11:19:03.497Z,75.40
2022-08-03T11:21:51.873Z,75.90
2022-08-03T11:24:37.071Z,75.30
2022-08-03T11:30:22.867Z,74.10
2022-08-03T11:32:58.457Z,73.60
2022-08-03T11:35:43.843Z,73.30
2022-08-03T11:38:12.106Z,72.30
2022-08-03T11:40:54.928Z,74.00
2022-08-03T11:43:33.476Z,70.50
2022-08-03T11:46:13.888Z,68.40
2022-08-03T11:49:07.847Z,68.70
2022-08-03T11:51:37.879Z,69.10
2022-08-03T11:54:06.976Z,68.00
2022-08-03T11:56:48.650Z,68.70
2022-08-03T11:59:21.681Z,68.90
2022-08-03T12:01:50.040Z,67.30
2022-08-03T12:04:17.224Z,63.70
2022-08-03T12:06:59.585Z,64.40
2022-08-03T12:09:26.766Z,66.30
2022-08-03T12:12:00.742Z,67.10
2022-08-03T12:14:48.600Z,69.90
2022-08-03T12:17:17.617Z,68.20
2022-08-03T12:19:44.957Z,66.40
2022-08-03T12:22:11.978Z,66.40
2022-08-03T12:24:47.478Z,66.80
2022-08-03T12:27:28.285Z,65.60
2022-08-03T12:29:59.061Z,66.70
2022-08-03T12:32:27.222Z,65.70
2022-08-03T12:34:54.420Z,65.20
2022-08-03T12:37:23.433Z,66.30
2022-08-03T12:40:02.698Z,66.40
2022-08-03T12:42:37.844Z,65.60
2022-08-03T12:45:31.939Z,66.50
2022-08-03T12:48:00.826Z,66.10
2022-08-03T12:50:33.242Z,62.30
2022-08-03T12:53:08.026Z,63.50
2022-08-03T12:55:56.293Z,64.20
2022-08-03T12:58:36.130Z,61.50
2022-08-03T13:01:09.434Z,62.70
2022-08-03T13:03:50.018Z,64.20
2022-08-03T13:06:26.553Z,63.50
2022-08-03T13:09:07.547Z,64.40
2022-08-03T13:11:55.467Z,64.60
2022-08-03T13:14:23.765Z,64.40
2022-08-03T13:16:51.229Z,64.90
2022-08-03T13:19:18.135Z,63.20
2022-08-03T13:21:53.626Z,63.50
2022-08-03T13:24:31.724Z,64.90
2022-08-03T13:28:00.987Z,64.60
2022-08-03T13:29:48.720Z,62.70
2022-08-03T13:32:15.719Z,63.60
2022-08-03T13:34:42.436Z,64.50
2022-08-03T13:37:10.330Z,64.30
2022-08-03T13:39:57.265Z,64.40
2022-08-03T13:42:25.782Z,60.80
2022-08-03T13:44:52.545Z,63.70
2022-08-03T13:47:20.209Z,63.20
2022-08-03T13:49:54.258Z,61.60
2022-08-03T13:52:27.961Z,64.90
2022-08-03T13:54:54.988Z,64.50
2022-08-03T13:58:04.252Z,62.80
2022-08-03T14:00:09.374Z,63.00
2022-08-03T14:02:36.408Z,63.00
2022-08-03T14:05:03.313Z,63.80
2022-08-03T14:07:30.170Z,64.00
2022-08-03T14:09:57.082Z,60.40
2022-08-03T14:12:23.928Z,60.50
2022-08-03T14:14:50.907Z,63.70
2022-08-03T14:17:18.064Z,63.60
2022-08-03T14:19:53.280Z,60.50
2022-08-03T14:22:21.453Z,63.10
2022-08-03T14:24:49.332Z,60.60
2022-08-03T14:27:16.720Z,60.30
2022-08-03T14:29:43.720Z,61.10
2022-08-03T14:32:13.315Z,63.20
2022-08-03T14:34:41.135Z,61.40
2022-08-03T14:37:10.081Z,61.10
2022-08-03T14:42:23.822Z,63.10
2022-08-03T14:44:50.707Z,63.20
2022-08-03T14:47:17.848Z,63.30
2022-08-03T14:50:30.062Z,64.50
2022-08-03T14:52:32.427Z,65.50
2022-08-03T14:55:00.050Z,65.70
2022-08-03T14:57:27.305Z,66.50
2022-08-03T14:59:57.073Z,66.20
2022-08-03T15:02:25.217Z,66.40
2022-08-03T15:04:52.766Z,66.30
2022-08-03T15:07:20.704Z,65.00
2022-08-03T15:09:47.860Z,65.00
2022-08-03T15:12:14.925Z,63.80
2022-08-03T15:14:41.812Z,65.70
2022-08-03T15:17:08.887Z,64.40
2022-08-03T15:20:05.506Z,64.20
2022-08-03T15:22:25.124Z,65.70
2022-08-03T15:25:03.726Z,65.90
2022-08-03T15:28:03.005Z,66.50
2022-08-03T15:30:35.101Z,66.20
2022-08-03T15:33:02.557Z,66.50
2022-08-03T15:35:29.643Z,67.60
2022-08-03T15:37:56.479Z,68.50
2022-08-03T15:40:23.288Z,69.20
2022-08-03T15:42:49.947Z,67.10
2022-08-03T15:45:17.823Z,65.40
2022-08-03T15:47:47.466Z,66.20
2022-08-03T15:50:14.255Z,67.10
2022-08-03T15:52:41.008Z,66.80
2022-08-03T15:55:08.472Z,68.60
2022-08-03T15:59:04.790Z,69.20
2022-08-03T16:00:33.451Z,69.50
2022-08-03T16:03:01.138Z,70.00
2022-08-03T16:05:28.613Z,70.20
2022-08-03T16:08:03.970Z,70.20
2022-08-03T16:10:32.264Z,70.70
2022-08-03T16:13:00.084Z,72.30
2022-08-03T16:15:27.278Z,72.70
2022-08-03T16:17:54.393Z,72.40
2022-08-03T16:20:31.285Z,73.80
2022-08-03T16:23:10.574Z,73.70
2022-08-03T16:25:39.896Z,74.80
2022-08-03T16:28:13.190Z,75.00
2022-08-03T16:30:42.573Z,76.10
2022-08-03T16:33:10.204Z,76.40
2022-08-03T16:35:37.174Z,75.30
2022-08-03T16:38:09.610Z,75.30
2022-08-03T16:40:37.281Z,74.80
2022-08-03T16:43:18.943Z,74.20
2022-08-03T16:45:51.318Z,74.10
2022-08-03T16:48:18.724Z,75.10
2022-08-03T16:50:46.169Z,75.40
2022-08-03T16:53:16.477Z,76.90
2022-08-03T16:55:53.139Z,79.40
2022-08-03T16:58:41.344Z,83.00
2022-08-03T17:01:21.930Z,75.00
2022-08-03T17:04:02.699Z,75.50
2022-08-03T17:06:38.576Z,75.00
2022-08-03T17:09:15.561Z,75.50
2022-08-03T17:11:47.817Z,76.60
2022-08-03T17:14:16.936Z,76.00
2022-08-03T17:16:52.063Z,76.40
2022-08-03T17:19:21.648Z,76.80
2022-08-03T17:21:59.460Z,76.90
2022-08-03T17:24:40.949Z,76.10
2022-08-03T17:28:41.690Z,77.30
2022-08-03T17:30:08.381Z,78.10
2022-08-03T17:32:42.331Z,79.60
2022-08-03T17:35:10.335Z,78.00
2022-08-03T17:37:58.516Z,78.30
2022-08-03T17:40:24.872Z,77.80
2022-08-03T17:42:53.267Z,77.60
2022-08-03T17:45:20.689Z,77.50
2022-08-03T17:47:57.541Z,77.50
2022-08-03T17:50:34.500Z,77.40
2022-08-03T17:53:15.705Z,77.90
2022-08-03T17:56:04.177Z,78.80
2022-08-03T17:58:38.271Z,80.10
2022-08-03T18:02:00.037Z,81.60
2022-08-03T18:04:30.717Z,82.10
2022-08-03T18:07:00.251Z,82.80
2022-08-03T18:10:04.460Z,86.10
2022-08-03T18:12:28.944Z,94.30
2022-08-03T18:15:01.169Z,92.10
2022-08-03T18:17:55.697Z,86.20
2022-08-03T18:20:32.256Z,88.60
2022-08-03T18:23:06.374Z,87.90
2022-08-03T18:25:43.020Z,88.30
2022-08-03T18:31:05.971Z,93.80
2022-08-03T18:34:17.324Z,90.40
2022-08-03T18:39:01.724Z,90.00
2022-08-03T18:41:32.112Z,90.60
2022-08-03T18:44:09.066Z,90.30
2022-08-03T18:47:07.435Z,90.80
2022-08-03T18:50:00.659Z,91.10
2022-08-03T18:56:01.243Z,91.60
2022-08-03T18:58:52.203Z,91.90
2022-08-03T19:01:58.350Z,94.70
2022-08-03T19:04:37.122Z,93.20
2022-08-03T19:07:09.504Z,93.70
2022-08-03T19:09:54.744Z,94.00
2022-08-03T19:15:13.446Z,96.30
2022-08-03T19:17:53.742Z,96.80
2022-08-03T19:20:25.305Z,97.20
2022-08-03T19:22:54.311Z,98.20
2022-08-03T19:25:34.281Z,98.90
2022-08-03T19:28:04.210Z,98.70
2022-08-03T19:33:07.443Z,99.20
2022-08-03T19:41:02.558Z,99.90
2022-08-03T19:46:31.635Z,99.90
2022-08-03T19:49:14.648Z,99.90
2022-08-03T21:13:02.803Z,99.90
2022-08-03T21:13:04.092Z,88.90
2022-08-03T21:13:10.281Z,99.90
